createdAt,value
2018-07-20T00:00:21.462Z,19.25
2018-07-20T00:01:21.500Z,19.28
2018-07-20T00:02:21.534Z,19.22
2018-07-20T00:03:21.570Z,19.22
2018-07-20T00:04:21.605Z,19.26
2018-07-20T00:05:21.642Z,19.26
2018-07-20T00:06:21.678Z,19.26
2018-07-20T00:07:21.715Z,19.29
2018-07-20T00:08:21.750Z,19.11
2018-07-20T00:09:21.785Z,19.13
2018-07-20T00:10:21.821Z,19.10
2018-07-20T00:11:21.858Z,19.07
2018-07-20T00:12:21.894Z,18.91
2018-07-20T00:13:21.928Z,18.90
2018-07-20T00:14:21.965Z,18.84
2018-07-20T00:15:22.002Z,18.76
2018-07-20T00:16:22.037Z,18.67
2018-07-20T00:17:22.074Z,18.51
2018-07-20T00:18:22.109Z,18.58
2018-07-20T00:19:22.145Z,18.44
2018-07-20T00:20:22.181Z,18.50
2018-07-20T00:21:22.217Z,18.41
2018-07-20T00:22:22.252Z,18.50
2018-07-20T00:23:22.288Z,18.54
2018-07-20T00:24:22.328Z,18.52
2018-07-20T00:25:22.358Z,18.58
2018-07-20T00:26:22.395Z,18.52
2018-07-20T00:27:22.437Z,18.58
2018-07-20T00:28:22.467Z,18.58
2018-07-20T00:29:22.502Z,18.62
2018-07-20T00:30:22.587Z,18.62
2018-07-20T00:31:22.574Z,18.63
2018-07-20T00:32:22.611Z,18.62
2018-07-20T00:33:22.645Z,18.60
2018-07-20T00:34:22.682Z,18.63
2018-07-20T00:35:22.716Z,18.58
2018-07-20T00:36:22.755Z,18.69
2018-07-20T00:37:22.788Z,18.66
2018-07-20T00:38:22.824Z,18.52
2018-07-20T00:39:22.859Z,18.47
2018-07-20T00:40:22.896Z,18.60
2018-07-20T00:41:22.930Z,18.52
2018-07-20T00:42:22.969Z,18.62
2018-07-20T00:43:23.002Z,18.65
2018-07-20T00:44:23.043Z,18.60
2018-07-20T00:45:23.072Z,18.62
2018-07-20T00:46:23.109Z,18.62
2018-07-20T00:47:23.145Z,18.62
2018-07-20T00:48:23.181Z,18.63
2018-07-20T00:49:23.215Z,18.63
2018-07-20T00:50:23.252Z,18.67
2018-07-20T00:51:23.288Z,18.67
2018-07-20T00:52:23.323Z,18.57
2018-07-20T00:53:23.360Z,18.57
2018-07-20T00:54:23.394Z,18.58
2018-07-20T00:55:23.429Z,18.58
2018-07-20T00:56:23.466Z,18.72
2018-07-20T00:57:23.500Z,18.67
2018-07-20T00:58:23.538Z,18.62
2018-07-20T00:59:23.571Z,18.63
2018-07-20T01:00:23.609Z,18.62
2018-07-20T01:01:23.644Z,18.66
2018-07-20T01:02:23.680Z,18.72
2018-07-20T01:03:23.715Z,18.73
2018-07-20T01:04:23.751Z,18.70
2018-07-20T01:05:23.813Z,18.72
2018-07-20T01:06:23.823Z,18.63
2018-07-20T01:07:23.858Z,18.75
2018-07-20T01:08:23.894Z,18.67
2018-07-20T01:09:23.927Z,18.62
2018-07-20T01:10:23.965Z,18.67
2018-07-20T01:11:24.002Z,18.73
2018-07-20T01:12:24.036Z,18.72
2018-07-20T01:13:24.071Z,18.75
2018-07-20T01:14:24.105Z,18.70
2018-07-20T01:15:24.148Z,18.66
2018-07-20T01:16:24.178Z,18.58
2018-07-20T01:17:24.213Z,18.63
2018-07-20T01:18:24.249Z,18.62
2018-07-20T01:19:24.283Z,18.60
2018-07-20T01:20:24.320Z,18.70
2018-07-20T01:21:24.357Z,18.70
2018-07-20T01:22:24.390Z,18.55
2018-07-20T01:23:24.426Z,18.63
2018-07-20T01:24:24.461Z,18.65
2018-07-20T01:25:24.496Z,18.54
2018-07-20T01:26:24.532Z,18.70
2018-07-20T01:27:24.568Z,18.65
2018-07-20T01:28:24.603Z,18.65
2018-07-20T01:29:24.639Z,18.65
2018-07-20T01:30:24.676Z,18.67
2018-07-20T01:31:24.710Z,18.72
2018-07-20T01:32:24.748Z,18.70
2018-07-20T01:33:24.782Z,18.67
2018-07-20T01:34:25.070Z,18.58
2018-07-20T01:35:24.852Z,18.62
2018-07-20T01:36:24.888Z,18.66
2018-07-20T01:37:24.921Z,18.60
2018-07-20T01:38:25.160Z,18.52
2018-07-20T01:39:24.994Z,18.51
2018-07-20T01:40:25.031Z,18.45
2018-07-20T01:41:25.064Z,18.42
2018-07-20T01:42:25.100Z,18.37
2018-07-20T01:43:25.136Z,18.37
2018-07-20T01:44:25.195Z,18.39
2018-07-20T01:45:25.206Z,18.39
2018-07-20T01:46:25.243Z,18.32
2018-07-20T01:47:25.277Z,18.30
2018-07-20T01:48:25.314Z,18.35
2018-07-20T01:49:25.347Z,18.32
2018-07-20T01:50:25.382Z,18.26
2018-07-20T01:51:25.418Z,18.35
2018-07-20T01:52:25.477Z,18.29
2018-07-20T01:53:25.488Z,18.27
2018-07-20T01:54:25.523Z,18.35
2018-07-20T01:55:25.559Z,18.32
2018-07-20T01:56:25.595Z,18.33
2018-07-20T01:57:25.632Z,18.32
2018-07-20T01:58:25.666Z,18.27
2018-07-20T01:59:25.701Z,18.27
2018-07-20T02:00:25.736Z,18.33
2018-07-20T02:01:25.770Z,18.30
2018-07-20T02:02:25.806Z,18.29
2018-07-20T02:03:27.384Z,18.29
2018-07-20T02:05:25.911Z,18.20
2018-07-20T02:06:25.947Z,18.32
2018-07-20T02:07:25.983Z,18.25
2018-07-20T02:08:26.018Z,18.21
2018-07-20T02:09:26.053Z,18.14
2018-07-20T02:10:26.088Z,18.10
2018-07-20T02:11:26.124Z,18.14
2018-07-20T02:12:26.158Z,18.26
2018-07-20T02:13:26.193Z,18.18
2018-07-20T02:14:26.231Z,18.29
2018-07-20T02:15:26.264Z,18.23
2018-07-20T02:16:26.300Z,18.26
2018-07-20T02:17:26.335Z,18.27
2018-07-20T02:18:26.369Z,18.26
2018-07-20T02:19:26.405Z,18.32
2018-07-20T02:20:26.440Z,18.36
2018-07-20T02:21:26.479Z,18.32
2018-07-20T02:22:26.510Z,18.29
2018-07-20T02:23:26.547Z,18.29
2018-07-20T02:24:26.582Z,18.32
2018-07-20T02:25:26.615Z,18.29
2018-07-20T02:26:26.651Z,18.39
2018-07-20T02:29:26.760Z,18.26
2018-07-20T02:30:26.792Z,18.25
2018-07-20T02:31:26.827Z,18.32
2018-07-20T02:32:26.864Z,18.21
2018-07-20T02:33:26.902Z,18.17
2018-07-20T02:34:26.935Z,18.14
2018-07-20T02:35:26.968Z,18.08
2018-07-20T02:36:27.003Z,18.07
2018-07-20T02:37:27.059Z,18.10
2018-07-20T02:38:27.098Z,18.02
2018-07-20T02:39:27.118Z,17.99
2018-07-20T02:40:27.143Z,18.03
2018-07-20T02:41:27.178Z,17.99
2018-07-20T02:42:27.213Z,18.00
2018-07-20T02:43:27.249Z,17.96
2018-07-20T02:44:27.283Z,17.97
2018-07-20T02:45:27.319Z,18.00
2018-07-20T02:46:27.353Z,17.99
2018-07-20T02:47:27.391Z,17.93
2018-07-20T02:48:27.423Z,18.03
2018-07-20T02:49:27.458Z,18.08
2018-07-20T02:50:27.519Z,17.96
2018-07-20T02:51:27.552Z,18.00
2018-07-20T02:52:27.571Z,18.03
2018-07-20T02:53:27.600Z,18.00
2018-07-20T02:54:27.645Z,17.93
2018-07-20T02:55:27.673Z,18.03
2018-07-20T02:56:27.704Z,17.95
2018-07-20T02:57:27.762Z,17.93
2018-07-20T02:58:27.774Z,17.86
2018-07-20T02:59:27.807Z,17.84
2018-07-20T03:00:27.845Z,17.90
2018-07-20T03:01:27.878Z,17.89
2018-07-20T03:02:27.913Z,17.84
2018-07-20T03:04:28.007Z,17.81
2018-07-20T03:05:28.246Z,17.75
2018-07-20T03:07:28.089Z,17.70
2018-07-20T03:08:28.125Z,17.66
2018-07-20T03:09:28.158Z,17.72
2018-07-20T03:10:28.194Z,17.70
2018-07-20T03:11:28.231Z,17.64
2018-07-20T03:12:28.264Z,17.56
2018-07-20T03:13:28.322Z,17.58
2018-07-20T03:14:28.357Z,17.56
2018-07-20T03:15:28.368Z,17.54
2018-07-20T03:16:28.403Z,17.59
2018-07-20T03:17:28.438Z,17.66
2018-07-20T03:18:28.472Z,17.62
2018-07-20T03:19:28.509Z,17.56
2018-07-20T03:20:28.542Z,17.58
2018-07-20T03:21:28.577Z,17.66
2018-07-20T03:22:28.612Z,17.70
2018-07-20T03:23:28.647Z,17.64
2018-07-20T03:24:28.681Z,17.59
2018-07-20T03:25:28.716Z,17.62
2018-07-20T03:26:28.751Z,17.75
2018-07-20T03:27:28.785Z,17.55
2018-07-20T03:28:28.820Z,17.62
2018-07-20T03:29:28.859Z,17.59
2018-07-20T03:30:28.891Z,17.72
2018-07-20T03:31:28.926Z,17.68
2018-07-20T03:32:28.962Z,17.70
2018-07-20T03:33:28.995Z,17.64
2018-07-20T03:34:29.032Z,17.70
2018-07-20T03:35:29.065Z,17.68
2018-07-20T03:36:29.100Z,17.68
2018-07-20T03:37:29.133Z,17.74
2018-07-20T03:38:29.170Z,17.86
2018-07-20T03:39:29.204Z,17.78
2018-07-20T03:40:29.239Z,17.87
2018-07-20T03:41:29.293Z,17.95
2018-07-20T03:42:29.309Z,17.99
2018-07-20T03:43:29.344Z,18.00
2018-07-20T03:44:29.378Z,17.89
2018-07-20T03:45:29.414Z,17.97
2018-07-20T03:46:29.448Z,17.92
2018-07-20T03:47:29.483Z,17.95
2018-07-20T03:48:29.519Z,17.93
2018-07-20T03:49:29.553Z,18.00
2018-07-20T03:50:29.588Z,18.02
2018-07-20T03:51:29.623Z,17.92
2018-07-20T03:52:29.660Z,17.96
2018-07-20T03:53:29.692Z,17.95
2018-07-20T03:54:29.728Z,18.00
2018-07-20T03:55:29.763Z,18.00
2018-07-20T03:56:29.798Z,18.03
2018-07-20T03:57:29.834Z,18.08
2018-07-20T03:58:29.868Z,18.07
2018-07-20T03:59:29.903Z,18.12
2018-07-20T04:00:29.938Z,18.17
2018-07-20T04:01:29.973Z,18.10
2018-07-20T04:02:30.042Z,18.14
2018-07-20T04:03:30.043Z,18.07
2018-07-20T04:04:30.078Z,18.10
2018-07-20T04:05:30.112Z,18.10
2018-07-20T04:06:30.146Z,18.10
2018-07-20T04:07:30.183Z,18.11
2018-07-20T04:08:30.218Z,17.96
2018-07-20T04:09:30.252Z,17.95
2018-07-20T04:10:30.288Z,17.93
2018-07-20T04:11:30.324Z,17.95
2018-07-20T04:12:30.358Z,18.00
2018-07-20T04:13:30.418Z,17.97
2018-07-20T04:14:30.428Z,17.93
2018-07-20T04:15:30.466Z,17.87
2018-07-20T04:16:30.498Z,17.78
2018-07-20T04:17:30.533Z,17.82
2018-07-20T04:18:30.568Z,17.86
2018-07-20T04:19:30.603Z,17.81
2018-07-20T04:20:30.638Z,17.84
2018-07-20T04:21:30.673Z,17.72
2018-07-20T04:22:30.710Z,17.75
2018-07-20T04:23:30.746Z,17.74
2018-07-20T04:24:30.779Z,17.77
2018-07-20T04:25:30.815Z,17.82
2018-07-20T04:26:30.848Z,17.81
2018-07-20T04:27:30.884Z,17.81
2018-07-20T04:28:30.918Z,17.87
2018-07-20T04:29:30.952Z,17.93
2018-07-20T04:30:30.988Z,18.07
2018-07-20T04:31:31.024Z,17.96
2018-07-20T04:32:31.059Z,18.00
2018-07-20T04:33:31.094Z,18.02
2018-07-20T04:34:31.128Z,18.03
2018-07-20T04:35:31.165Z,17.95
2018-07-20T04:36:31.236Z,17.99
2018-07-20T04:37:31.233Z,17.95
2018-07-20T04:38:31.597Z,17.89
2018-07-20T04:39:31.303Z,17.90
2018-07-20T04:40:31.339Z,17.86
2018-07-20T04:41:31.374Z,17.90
2018-07-20T04:42:31.409Z,17.87
2018-07-20T04:43:31.444Z,17.93
2018-07-20T04:44:31.479Z,17.93
2018-07-20T04:45:31.514Z,17.82
2018-07-20T04:46:31.547Z,17.79
2018-07-20T04:47:31.584Z,17.74
2018-07-20T04:48:31.618Z,17.71
2018-07-20T04:49:31.854Z,17.70
2018-07-20T04:50:31.688Z,17.72
2018-07-20T04:51:31.724Z,17.72
2018-07-20T04:52:31.761Z,17.72
2018-07-20T04:53:31.793Z,17.72
2018-07-20T04:54:31.828Z,17.84
2018-07-20T04:55:31.863Z,17.84
2018-07-20T04:56:31.900Z,17.86
2018-07-20T04:57:31.932Z,17.82
2018-07-20T04:58:31.969Z,17.96
2018-07-20T04:59:32.027Z,17.96
2018-07-20T05:00:32.038Z,17.95
2018-07-20T05:01:32.072Z,18.02
2018-07-20T05:02:32.108Z,18.00
2018-07-20T05:03:32.143Z,17.99
2018-07-20T05:04:32.179Z,18.03
2018-07-20T05:05:32.213Z,17.92
2018-07-20T05:06:32.248Z,17.93
2018-07-20T05:07:32.283Z,18.05
2018-07-20T05:08:32.319Z,18.07
2018-07-20T05:09:32.353Z,18.07
2018-07-20T05:10:32.388Z,17.97
2018-07-20T05:11:32.474Z,18.14
2018-07-20T05:12:32.661Z,18.08
2018-07-20T05:13:32.493Z,18.00
2018-07-20T05:14:32.528Z,18.10
2018-07-20T05:15:32.566Z,18.10
2018-07-20T05:16:32.598Z,18.05
2018-07-20T05:17:32.633Z,18.21
2018-07-20T05:18:32.668Z,18.26
2018-07-20T05:19:32.703Z,18.30
2018-07-20T05:20:32.739Z,18.32
2018-07-20T05:21:32.773Z,18.30
2018-07-20T05:22:32.809Z,18.33
2018-07-20T05:23:32.844Z,18.30
2018-07-20T05:24:32.878Z,18.32
2018-07-20T05:25:32.917Z,18.29
2018-07-20T05:26:32.949Z,18.30
2018-07-20T05:27:32.984Z,18.18
2018-07-20T05:28:33.022Z,18.23
2018-07-20T05:29:33.054Z,18.14
2018-07-20T05:30:33.090Z,18.10
2018-07-20T05:31:33.125Z,18.08
2018-07-20T05:32:33.165Z,18.10
2018-07-20T05:33:33.195Z,18.18
2018-07-20T05:34:33.232Z,18.27
2018-07-20T05:35:33.266Z,18.39
2018-07-20T05:36:33.302Z,18.57
2018-07-20T05:37:33.337Z,18.54
2018-07-20T05:38:33.374Z,18.70
2018-07-20T05:39:33.410Z,18.81
2018-07-20T05:40:33.443Z,18.92
2018-07-20T05:41:33.478Z,19.02
2018-07-20T05:42:33.514Z,19.18
2018-07-20T05:43:33.751Z,19.28
2018-07-20T05:44:33.584Z,19.18
2018-07-20T05:45:33.619Z,19.14
2018-07-20T05:46:33.655Z,19.14
2018-07-20T05:47:33.693Z,19.21
2018-07-20T05:48:33.727Z,19.29
2018-07-20T05:49:33.767Z,19.33
2018-07-20T05:50:34.000Z,19.54
2018-07-20T05:51:33.834Z,19.69
2018-07-20T05:52:33.869Z,19.78
2018-07-20T05:53:33.905Z,19.83
2018-07-20T05:54:33.940Z,19.98
2018-07-20T05:55:33.976Z,20.11
2018-07-20T05:56:34.013Z,20.08
2018-07-20T05:57:34.047Z,20.23
2018-07-20T05:58:34.083Z,20.28
2018-07-20T05:59:34.119Z,20.39
2018-07-20T06:00:34.156Z,20.51
2018-07-20T06:01:34.247Z,20.33
2018-07-20T06:02:34.227Z,20.21
2018-07-20T06:03:34.281Z,20.13
2018-07-20T06:04:34.301Z,19.96
2018-07-20T06:05:34.394Z,19.77
2018-07-20T06:06:34.372Z,19.81
2018-07-20T06:07:34.410Z,19.77
2018-07-20T06:08:34.447Z,19.78
2018-07-20T06:09:34.480Z,19.78
2018-07-20T06:10:34.516Z,19.94
2018-07-20T06:11:34.555Z,19.95
2018-07-20T06:12:34.594Z,19.99
2018-07-20T06:13:34.667Z,20.13
2018-07-20T06:14:34.662Z,20.32
2018-07-20T06:15:34.700Z,20.52
2018-07-20T06:16:34.736Z,20.70
2018-07-20T06:17:34.776Z,20.87
2018-07-20T06:18:34.809Z,20.91
2018-07-20T06:19:34.845Z,20.98
2018-07-20T06:20:34.883Z,21.16
2018-07-20T06:21:34.919Z,21.19
2018-07-20T06:22:34.955Z,21.24
2018-07-20T06:23:35.047Z,21.37
2018-07-20T06:24:35.030Z,21.56
2018-07-20T06:25:35.066Z,21.69
2018-07-20T06:26:35.103Z,21.74
2018-07-20T06:27:35.143Z,21.84
2018-07-20T06:28:35.176Z,21.86
2018-07-20T06:29:35.215Z,21.98
2018-07-20T06:30:35.251Z,22.06
2018-07-20T06:31:35.289Z,22.14
2018-07-20T06:32:35.325Z,22.14
2018-07-20T06:33:35.362Z,22.25
2018-07-20T06:34:35.400Z,22.25
2018-07-20T06:35:35.437Z,22.42
2018-07-20T06:36:35.474Z,22.42
2018-07-20T06:37:35.511Z,22.64
2018-07-20T06:38:35.548Z,22.65
2018-07-20T06:39:35.586Z,22.67
2018-07-20T06:40:35.639Z,22.68
2018-07-20T06:41:35.660Z,22.73
2018-07-20T06:42:35.699Z,22.79
2018-07-20T06:43:35.792Z,22.88
2018-07-20T06:44:35.773Z,23.00
2018-07-20T06:45:35.810Z,22.94
2018-07-20T06:46:35.848Z,23.00
2018-07-20T06:47:35.887Z,23.05
2018-07-20T06:48:35.949Z,23.15
2018-07-20T06:49:35.962Z,23.16
2018-07-20T06:50:36.000Z,23.27
2018-07-20T06:51:36.038Z,23.23
2018-07-20T06:52:36.076Z,23.19
2018-07-20T06:53:36.113Z,23.04
2018-07-20T06:54:36.153Z,22.98
2018-07-20T06:55:36.190Z,23.01
2018-07-20T06:56:36.229Z,22.94
2018-07-20T06:57:36.265Z,22.98
2018-07-20T06:58:36.305Z,22.86
2018-07-20T06:59:36.343Z,22.92
2018-07-20T07:00:36.381Z,22.97
2018-07-20T07:01:36.419Z,23.00
2018-07-20T07:02:36.455Z,23.04
2018-07-20T07:03:36.495Z,23.17
2018-07-20T07:04:36.534Z,23.31
2018-07-20T07:05:36.571Z,23.36
2018-07-20T07:06:36.634Z,23.36
2018-07-20T07:07:36.670Z,23.54
2018-07-20T07:08:36.687Z,23.57
2018-07-20T07:09:36.726Z,23.43
2018-07-20T07:10:36.763Z,23.43
2018-07-20T07:11:36.802Z,23.50
2018-07-20T07:12:36.840Z,23.58
2018-07-20T07:13:36.878Z,23.70
2018-07-20T07:14:36.917Z,23.72
2018-07-20T07:15:36.957Z,23.73
2018-07-20T07:16:36.995Z,23.88
2018-07-20T07:17:37.034Z,23.90
2018-07-20T07:18:37.075Z,23.85
2018-07-20T07:19:37.110Z,23.91
2018-07-20T07:20:37.150Z,23.97
2018-07-20T07:21:37.212Z,24.02
2018-07-20T07:22:37.228Z,24.09
2018-07-20T07:23:37.284Z,24.27
2018-07-20T07:24:37.304Z,24.37
2018-07-20T07:25:37.343Z,24.53
2018-07-20T07:26:37.382Z,24.58
2018-07-20T07:27:37.421Z,24.58
2018-07-20T07:28:37.463Z,24.65
2018-07-20T07:29:37.498Z,24.62
2018-07-20T07:30:37.538Z,24.77
2018-07-20T07:31:37.577Z,24.73
2018-07-20T07:32:37.616Z,24.76
2018-07-20T07:33:37.857Z,24.76
2018-07-20T07:34:37.693Z,24.73
2018-07-20T07:35:37.733Z,24.78
2018-07-20T07:36:37.772Z,24.84
2018-07-20T07:37:37.809Z,24.90
2018-07-20T07:38:37.850Z,24.87
2018-07-20T07:39:37.890Z,24.91
2018-07-20T07:40:37.929Z,24.98
2018-07-20T07:41:37.967Z,25.00
2018-07-20T07:42:38.007Z,24.91
2018-07-20T07:43:38.047Z,25.03
2018-07-20T07:44:38.085Z,24.95
2018-07-20T07:45:38.124Z,25.15
2018-07-20T07:46:38.900Z,25.20
2018-07-20T07:47:40.827Z,25.23
2018-07-20T07:49:38.306Z,25.25
2018-07-20T07:50:38.322Z,25.28
2018-07-20T07:51:38.362Z,25.36
2018-07-20T07:52:38.402Z,25.39
2018-07-20T07:53:38.461Z,25.33
2018-07-20T07:54:38.487Z,25.42
2018-07-20T07:55:39.432Z,25.51
2018-07-20T07:56:38.560Z,25.75
2018-07-20T07:57:38.614Z,25.91
2018-07-20T07:58:38.644Z,26.01
2018-07-20T07:59:38.677Z,25.98
2018-07-20T08:00:38.718Z,25.99
2018-07-20T08:01:38.757Z,26.02
2018-07-20T08:02:38.796Z,26.01
2018-07-20T08:03:38.837Z,26.01
2018-07-20T08:04:38.876Z,26.10
2018-07-20T08:05:38.916Z,26.25
2018-07-20T08:06:38.956Z,26.26
2018-07-20T08:07:38.996Z,26.28
2018-07-20T08:08:39.036Z,26.35
2018-07-20T08:09:39.128Z,26.30
2018-07-20T08:10:39.117Z,26.30
2018-07-20T08:11:39.155Z,26.35
2018-07-20T08:12:39.196Z,26.36
2018-07-20T08:13:39.235Z,26.40
2018-07-20T08:14:39.275Z,26.54
2018-07-20T08:15:39.319Z,26.30
2018-07-20T08:16:39.357Z,26.62
2018-07-20T08:17:39.396Z,26.70
2018-07-20T08:18:39.436Z,27.02
2018-07-20T08:19:39.504Z,27.02
2018-07-20T08:20:39.517Z,26.92
2018-07-20T08:22:22.110Z,26.92
2018-07-20T08:23:22.151Z,27.14
2018-07-20T08:24:22.192Z,27.28
2018-07-20T08:25:22.230Z,27.34
2018-07-20T08:26:22.272Z,27.21
2018-07-20T08:27:22.313Z,27.32
2018-07-20T08:28:22.354Z,27.41
2018-07-20T08:29:22.398Z,27.66
2018-07-20T08:30:22.434Z,27.78
2018-07-20T08:31:22.475Z,27.84
2018-07-20T08:32:22.516Z,27.97
2018-07-20T08:33:22.860Z,27.96
2018-07-20T08:34:22.598Z,28.03
2018-07-20T08:35:22.639Z,28.14
2018-07-20T08:36:22.680Z,28.12
2018-07-20T08:37:22.728Z,28.07
2018-07-20T08:38:22.762Z,28.12
2018-07-20T08:39:22.803Z,28.22
2018-07-20T08:40:22.844Z,28.00
2018-07-20T08:41:22.884Z,28.11
2018-07-20T08:42:22.926Z,28.34
2018-07-20T08:43:22.968Z,28.43
2018-07-20T08:44:23.012Z,28.43
2018-07-20T08:45:23.051Z,28.48
2018-07-20T08:46:23.092Z,28.71
2018-07-20T08:47:23.133Z,28.71
2018-07-20T08:48:23.176Z,28.76
2018-07-20T08:49:23.418Z,28.83
2018-07-20T08:51:23.303Z,28.55
2018-07-20T08:52:23.342Z,28.52
2018-07-20T08:53:23.383Z,28.58
2018-07-20T08:54:23.425Z,28.66
2018-07-20T08:55:23.467Z,28.54
2018-07-20T08:56:23.513Z,28.58
2018-07-20T08:57:23.551Z,28.77
2018-07-20T08:58:23.594Z,29.00
2018-07-20T08:59:23.636Z,29.18
2018-07-20T09:00:23.677Z,29.15
2018-07-20T09:01:23.717Z,29.33
2018-07-20T09:02:23.761Z,29.30
2018-07-20T09:03:23.803Z,29.19
2018-07-20T09:04:23.848Z,29.15
2018-07-20T09:05:23.887Z,29.06
2018-07-20T09:06:23.930Z,28.98
2018-07-20T09:07:23.973Z,28.96
2018-07-20T09:08:24.016Z,29.28
2018-07-20T09:09:24.056Z,29.67
2018-07-20T09:10:24.099Z,30.02
2018-07-20T09:11:24.142Z,29.98
2018-07-20T09:12:24.184Z,29.80
2018-07-20T09:13:24.249Z,29.41
2018-07-20T09:14:24.274Z,29.37
2018-07-20T09:15:24.439Z,29.57
2018-07-20T09:16:24.356Z,29.53
2018-07-20T09:17:24.396Z,29.85
2018-07-20T09:18:24.438Z,29.71
2018-07-20T09:19:24.482Z,29.74
2018-07-20T09:20:24.524Z,29.48
2018-07-20T09:21:24.565Z,29.64
2018-07-20T09:22:24.609Z,29.83
2018-07-20T09:23:24.653Z,30.02
2018-07-20T09:24:24.725Z,30.29
2018-07-20T09:25:24.737Z,30.34
2018-07-20T09:26:24.780Z,30.53
2018-07-20T09:27:24.823Z,30.73
2018-07-20T09:28:24.991Z,30.75
2018-07-20T09:29:24.909Z,30.70
2018-07-20T09:30:24.952Z,30.82
2018-07-20T09:31:24.996Z,30.60
2018-07-20T09:32:25.041Z,30.62
2018-07-20T09:33:25.081Z,30.77
2018-07-20T09:34:25.126Z,31.01
2018-07-20T09:35:25.168Z,31.04
2018-07-20T09:36:25.413Z,30.35
2018-07-20T09:37:25.251Z,30.57
2018-07-20T09:38:25.499Z,30.64
2018-07-20T09:39:25.339Z,30.83
2018-07-20T09:40:25.406Z,31.32
2018-07-20T09:41:25.427Z,31.62
2018-07-20T09:42:25.471Z,31.91
2018-07-20T09:43:25.518Z,32.14
2018-07-20T09:44:25.622Z,32.08
2018-07-20T09:45:25.601Z,31.86
2018-07-20T09:46:25.645Z,31.95
2018-07-20T09:47:25.690Z,31.91
2018-07-20T09:48:25.734Z,31.92
2018-07-20T09:49:25.778Z,32.00
2018-07-20T09:50:25.821Z,32.10
2018-07-20T09:51:25.866Z,31.75
2018-07-20T09:52:25.910Z,31.88
2018-07-20T09:53:25.953Z,31.48
2018-07-20T09:54:25.998Z,31.61
2018-07-20T09:55:26.043Z,31.51
2018-07-20T09:56:26.087Z,31.47
2018-07-20T09:57:26.131Z,31.58
2018-07-20T09:58:26.192Z,31.62
2018-07-20T09:59:26.271Z,31.92
2018-07-20T10:00:26.265Z,31.99
2018-07-20T10:01:26.308Z,32.14
2018-07-20T10:02:26.352Z,32.37
2018-07-20T10:03:26.397Z,32.51
2018-07-20T10:04:26.442Z,32.45
2018-07-20T10:05:26.485Z,32.25
2018-07-20T10:06:26.530Z,32.33
2018-07-20T10:07:26.575Z,32.38
2018-07-20T10:08:26.620Z,32.08
2018-07-20T10:09:26.667Z,31.91
2018-07-20T10:10:26.708Z,32.11
2018-07-20T10:11:26.752Z,32.35
2018-07-20T10:12:26.801Z,32.11
2018-07-20T10:13:26.844Z,31.80
2018-07-20T10:14:26.886Z,31.99
2018-07-20T10:15:26.932Z,32.28
2018-07-20T10:16:26.982Z,32.41
2018-07-20T10:17:27.021Z,32.57
2018-07-20T10:18:27.066Z,32.48
2018-07-20T10:19:27.116Z,32.41
2018-07-20T10:20:27.160Z,32.38
2018-07-20T10:21:27.200Z,32.44
2018-07-20T10:22:27.245Z,32.66
2018-07-20T10:23:27.290Z,32.85
2018-07-20T10:24:27.335Z,33.00
2018-07-20T10:25:27.425Z,32.87
2018-07-20T10:26:27.428Z,33.07
2018-07-20T10:27:27.469Z,33.04
2018-07-20T10:28:27.515Z,33.39
2018-07-20T10:29:27.558Z,33.22
2018-07-20T10:30:27.604Z,33.34
2018-07-20T10:31:27.648Z,32.89
2018-07-20T10:32:27.694Z,33.09
2018-07-20T10:33:27.739Z,33.31
2018-07-20T10:34:27.784Z,34.15
2018-07-20T10:35:27.831Z,34.21
2018-07-20T10:36:27.876Z,34.16
2018-07-20T10:37:27.921Z,34.61
2018-07-20T10:38:27.969Z,34.62
2018-07-20T10:39:28.016Z,34.40
2018-07-20T10:40:28.061Z,35.29
2018-07-20T10:42:15.682Z,37.09
2018-07-20T10:43:15.803Z,37.81
2018-07-20T10:44:15.821Z,38.42
2018-07-20T10:45:15.827Z,38.37
2018-07-20T10:46:15.875Z,38.66
2018-07-20T10:47:15.925Z,39.45
2018-07-20T10:48:15.973Z,39.85
2018-07-20T10:49:16.025Z,40.38
2018-07-20T10:50:18.697Z,40.67
2018-07-20T10:51:18.749Z,40.58
2018-07-20T10:52:16.177Z,41.04
2018-07-20T10:53:16.229Z,41.51
2018-07-20T10:54:16.281Z,41.98
2018-07-20T10:55:16.331Z,42.37
2018-07-20T10:56:16.408Z,42.42
2018-07-20T10:57:16.436Z,42.78
2018-07-20T10:58:16.490Z,42.65
2018-07-20T10:59:16.543Z,42.58
2018-07-20T11:00:16.596Z,41.60
2018-07-20T11:01:16.654Z,40.04
2018-07-20T11:02:16.905Z,39.57
2018-07-20T11:03:16.757Z,40.16
2018-07-20T11:05:04.388Z,39.32
2018-07-20T11:06:04.444Z,38.78
2018-07-20T11:07:04.903Z,39.41
2018-07-20T11:08:04.588Z,39.36
2018-07-20T11:09:04.610Z,40.06
2018-07-20T11:10:04.662Z,40.03
2018-07-20T11:11:04.717Z,40.12
2018-07-20T11:12:04.772Z,40.08
2018-07-20T11:13:04.827Z,40.15
2018-07-20T11:14:04.883Z,40.15
2018-07-20T11:15:04.937Z,39.51
2018-07-20T11:16:04.993Z,40.18
2018-07-20T11:17:08.884Z,40.89
2018-07-20T11:18:05.106Z,41.55
2018-07-20T11:19:05.162Z,39.33
2018-07-20T11:20:05.221Z,40.20
2018-07-20T11:21:05.271Z,40.96
2018-07-20T11:22:05.327Z,41.64
2018-07-20T11:23:05.384Z,41.93
2018-07-20T11:24:05.438Z,40.99
2018-07-20T11:25:05.495Z,41.89
2018-07-20T11:26:08.176Z,42.16
2018-07-20T11:27:05.809Z,42.61
2018-07-20T11:28:05.700Z,42.16
2018-07-20T11:29:05.732Z,42.35
2018-07-20T11:30:05.777Z,42.08
2018-07-20T11:31:05.838Z,41.44
2018-07-20T11:32:05.889Z,41.47
2018-07-20T11:33:05.951Z,39.64
2018-07-20T11:34:06.004Z,40.07
2018-07-20T11:35:06.060Z,40.22
2018-07-20T11:36:06.118Z,40.22
2018-07-20T11:37:06.175Z,41.25
2018-07-20T11:38:06.232Z,40.69
2018-07-20T11:39:06.289Z,41.28
2018-07-20T11:40:06.355Z,41.26
2018-07-20T11:41:06.404Z,41.39
2018-07-20T11:42:06.461Z,41.33
2018-07-20T11:43:06.542Z,41.23
2018-07-20T11:44:06.576Z,40.62
2018-07-20T11:45:06.636Z,41.58
2018-07-20T11:46:06.692Z,41.96
2018-07-20T11:47:06.752Z,42.78
2018-07-20T11:48:06.806Z,42.59
2018-07-20T11:49:06.864Z,43.52
2018-07-20T11:50:06.921Z,43.59
2018-07-20T11:51:06.979Z,43.05
2018-07-20T11:52:07.038Z,43.68
2018-07-20T11:53:07.099Z,44.37
2018-07-20T11:54:07.481Z,44.22
2018-07-20T11:55:07.282Z,44.40
2018-07-20T11:56:07.268Z,44.88
2018-07-20T11:58:07.609Z,44.92
2018-07-20T12:00:07.500Z,45.16
2018-07-20T12:01:07.559Z,44.64
2018-07-20T12:02:07.614Z,43.34
2018-07-20T12:03:07.671Z,40.77
2018-07-20T12:04:07.753Z,39.60
2018-07-20T12:05:07.786Z,38.49
2018-07-20T12:09:08.038Z,39.45
2018-07-20T12:10:08.092Z,40.35
2018-07-20T12:11:08.126Z,40.08
2018-07-20T12:13:11.295Z,40.95
2018-07-20T12:17:08.467Z,40.98
2018-07-20T12:18:08.748Z,41.28
2018-07-20T12:19:09.314Z,41.80
2018-07-20T12:20:09.372Z,42.62
2018-07-20T12:21:08.720Z,43.35
2018-07-20T12:23:08.834Z,43.31
2018-07-20T12:24:08.886Z,43.66
2018-07-20T12:25:09.454Z,44.64
2018-07-20T12:26:09.205Z,43.94
2018-07-20T12:27:09.037Z,43.93
2018-07-20T12:28:09.132Z,43.02
2018-07-20T12:29:09.153Z,42.12
2018-07-20T12:30:09.210Z,42.66
2018-07-20T12:31:09.268Z,42.13
2018-07-20T12:32:09.324Z,42.06
2018-07-20T12:33:09.381Z,42.20
2018-07-20T12:34:09.440Z,43.40
2018-07-20T12:35:09.496Z,44.06
2018-07-20T12:36:09.554Z,43.90
2018-07-20T12:37:09.612Z,42.93
2018-07-20T12:38:09.670Z,42.08
2018-07-20T12:39:09.727Z,43.17
2018-07-20T12:40:09.787Z,42.96
2018-07-20T12:41:09.876Z,42.43
2018-07-20T12:42:09.902Z,42.18
2018-07-20T12:43:09.962Z,41.44
2018-07-20T12:44:10.016Z,40.38
2018-07-20T12:45:10.075Z,39.77
2018-07-20T12:46:10.133Z,41.49
2018-07-20T12:47:10.190Z,40.76
2018-07-20T12:48:10.247Z,41.41
2018-07-20T12:49:10.304Z,41.82
2018-07-20T12:50:10.425Z,41.08
2018-07-20T12:51:10.419Z,40.72
2018-07-20T12:52:10.476Z,40.06
2018-07-20T12:53:10.536Z,39.66
2018-07-20T12:54:10.590Z,39.23
2018-07-20T12:55:10.645Z,38.42
2018-07-20T12:56:11.308Z,37.81
2018-07-20T12:57:10.756Z,38.11
2018-07-20T12:58:10.813Z,38.50
2018-07-20T12:59:10.867Z,38.83
2018-07-20T13:00:10.922Z,40.89
2018-07-20T13:01:10.976Z,41.18
2018-07-20T13:02:11.033Z,40.65
2018-07-20T13:03:11.085Z,39.44
2018-07-20T13:04:11.156Z,39.21
2018-07-20T13:05:11.200Z,39.03
2018-07-20T13:06:11.248Z,38.66
2018-07-20T13:07:11.323Z,38.41
2018-07-20T13:08:11.358Z,38.22
2018-07-20T13:09:11.408Z,37.70
2018-07-20T13:10:11.482Z,37.27
2018-07-20T13:11:11.513Z,36.94
2018-07-20T13:12:11.632Z,36.56